Time;durP1;ratioP1;P1;durP2;ratioP2;P2;SDS_P1;SDS_P2;PMS_P1;PMS_P2;Temp;Humidity;BMP_temperature;BMP_pressure;BME280_temperature;BME280_humidity;BME280_pressure;Samples;Min_cycle;Max_cycle;Signal;HPM_P1;HPM_P2
2024/01/12 00:01:29;;;;;;;62.00;21.77;;;;;;;;;;5051424;28;20083;-61
2024/01/12 00:03:54;;;;;;;60.88;22.02;;;;;;;;;;5049619;28;20037;-61
2024/01/12 00:06:20;;;;;;;60.00;21.35;;;;;;;;;;5050626;28;20037;-61
2024/01/12 00:08:45;;;;;;;54.75;21.00;;;;;;;;;;5049331;28;20108;-61
2024/01/12 00:11:11;;;;;;;56.00;21.10;;;;;;;;;;5030989;28;20461;-61
2024/01/12 00:13:37;;;;;;;63.42;21.33;;;;;;;;;;5034200;28;20069;-61
2024/01/12 00:16:06;;;;;;;57.30;21.63;;;;;;;;;;5042698;28;20032;-60
2024/01/12 00:18:32;;;;;;;53.33;21.17;;;;;;;;;;5049819;28;20362;-60
2024/01/12 00:20:58;;;;;;;63.08;21.83;;;;;;;;;;5050187;28;20083;-60
2024/01/12 00:23:23;;;;;;;62.53;20.90;;;;;;;;;;5049112;28;20385;-61
2024/01/12 00:25:48;;;;;;;53.72;19.52;;;;;;;;;;5050606;28;20049;-60
2024/01/12 00:28:14;;;;;;;53.33;20.17;;;;;;;;;;5049373;28;20037;-60
2024/01/12 00:30:39;;;;;;;59.53;21.17;;;;;;;;;;5050744;28;20029;-61
2024/01/12 00:33:07;;;;;;;53.85;21.08;;;;;;;;;;5050711;28;20041;-60
2024/01/12 00:35:33;;;;;;;60.55;21.15;;;;;;;;;;5035248;28;20029;-60
2024/01/12 00:37:58;;;;;;;54.13;21.02;;;;;;;;;;5049834;28;20051;-60
2024/01/12 00:40:24;;;;;;;61.30;22.35;;;;;;;;;;5048410;28;20068;-60
2024/01/12 00:42:52;;;;;;;60.60;22.05;;;;;;;;;;5048973;28;20045;-60
2024/01/12 00:45:17;;;;;;;59.03;21.48;;;;;;;;;;5053294;28;20031;-60
2024/01/12 00:47:43;;;;;;;56.60;21.88;;;;;;;;;;5054172;28;20033;-60
2024/01/12 00:50:09;;;;;;;60.60;20.98;;;;;;;;;;5053724;28;20033;-61
2024/01/12 00:52:34;;;;;;;62.65;21.38;;;;;;;;;;5053296;28;20041;-61
2024/01/12 00:55:00;;;;;;;55.30;20.52;;;;;;;;;;5041932;28;20025;-61
2024/01/12 00:57:25;;;;;;;52.13;20.30;;;;;;;;;;5049557;28;20434;-61
2024/01/12 00:59:51;;;;;;;60.67;20.98;;;;;;;;;;5054913;28;20032;-61
2024/01/12 01:02:16;;;;;;;61.28;21.90;;;;;;;;;;5052208;28;20028;-61
2024/01/12 01:04:42;;;;;;;58.20;20.27;;;;;;;;;;5051648;28;20029;-61
2024/01/12 01:07:07;;;;;;;62.55;21.67;;;;;;;;;;5053854;28;20074;-61
2024/01/12 01:09:32;;;;;;;69.22;22.92;;;;;;;;;;5055417;28;20530;-63
2024/01/12 01:11:58;;;;;;;65.57;20.70;;;;;;;;;;5055159;28;20094;-63
2024/01/12 01:14:24;;;;;;;68.82;21.63;;;;;;;;;;5055889;28;20472;-63
2024/01/12 01:16:51;;;;;;;59.47;20.25;;;;;;;;;;5053123;28;20087;-62
2024/01/12 01:19:17;;;;;;;66.90;20.52;;;;;;;;;;5053298;28;20035;-62
2024/01/12 01:21:42;;;;;;;55.25;20.05;;;;;;;;;;5053448;28;20041;-62
2024/01/12 01:24:08;;;;;;;62.50;20.08;;;;;;;;;;5044419;28;20029;-62
2024/01/12 01:26:33;;;;;;;61.50;20.23;;;;;;;;;;5053895;28;20056;-62
2024/01/12 01:28:59;;;;;;;57.15;18.50;;;;;;;;;;5053428;28;20049;-62
2024/01/12 01:31:24;;;;;;;56.08;20.55;;;;;;;;;;5052564;28;20461;-62
2024/01/12 01:33:50;;;;;;;55.60;18.40;;;;;;;;;;5051998;28;20047;-62
2024/01/12 01:36:15;;;;;;;57.35;18.10;;;;;;;;;;5052395;28;20071;-61
2024/01/12 01:38:41;;;;;;;53.83;18.30;;;;;;;;;;5053673;28;20033;-61
2024/01/12 01:41:06;;;;;;;56.42;18.30;;;;;;;;;;5053552;28;20032;-62
2024/01/12 01:43:32;;;;;;;57.28;18.40;;;;;;;;;;5051015;28;20079;-61
2024/01/12 01:45:57;;;;;;;61.60;19.38;;;;;;;;;;5053293;28;20069;-61
2024/01/12 01:48:23;;;;;;;62.05;19.77;;;;;;;;;;5051643;28;20438;-61
2024/01/12 01:50:49;;;;;;;56.55;18.38;;;;;;;;;;5036590;28;20063;-62
2024/01/12 01:53:14;;;;;;;64.47;19.90;;;;;;;;;;5051520;28;20028;-61
2024/01/12 01:55:39;;;;;;;63.22;19.77;;;;;;;;;;5050230;28;20032;-62
2024/01/12 01:58:06;;;;;;;64.70;19.27;;;;;;;;;;5051417;28;20033;-62
2024/01/12 02:00:32;;;;;;;66.50;20.55;;;;;;;;;;5051989;28;20080;-63
2024/01/12 02:02:59;;;;;;;60.22;19.23;;;;;;;;;;5052342;28;20036;-61
2024/01/12 02:05:26;;;;;;;69.18;19.25;;;;;;;;;;5051629;28;20068;-63
2024/01/12 02:07:51;;;;;;;64.72;19.33;;;;;;;;;;5053314;28;20033;-62
2024/01/12 02:10:17;;;;;;;64.30;19.05;;;;;;;;;;5051963;28;20108;-62
2024/01/12 02:12:42;;;;;;;57.30;18.50;;;;;;;;;;5041356;28;20029;-61
2024/01/12 02:15:08;;;;;;;73.90;19.85;;;;;;;;;;5052675;28;20098;-62
2024/01/12 02:17:34;;;;;;;63.42;20.65;;;;;;;;;;5053751;28;20049;-62
2024/01/12 02:20:00;;;;;;;64.20;19.95;;;;;;;;;;5033640;28;20033;-61
2024/01/12 02:22:26;;;;;;;71.55;20.10;;;;;;;;;;5034072;28;20468;-62
2024/01/12 02:24:52;;;;;;;65.63;19.90;;;;;;;;;;5051368;28;20057;-61
2024/01/12 02:27:18;;;;;;;67.65;18.75;;;;;;;;;;5051726;28;20037;-62
2024/01/12 02:29:45;;;;;;;64.13;19.35;;;;;;;;;;5051727;28;20043;-61
2024/01/12 02:32:10;;;;;;;69.43;19.80;;;;;;;;;;5051998;28;20043;-61
2024/01/12 02:34:36;;;;;;;65.00;19.30;;;;;;;;;;5050345;28;20028;-61
2024/01/12 02:37:01;;;;;;;70.10;19.85;;;;;;;;;;5041751;28;20384;-61
2024/01/12 02:39:26;;;;;;;72.00;20.77;;;;;;;;;;5051927;28;20045;-61
2024/01/12 02:41:54;;;;;;;68.35;18.52;;;;;;;;;;5053062;28;20053;-62
2024/01/12 02:44:19;;;;;;;64.68;20.35;;;;;;;;;;5051387;28;20056;-62
2024/01/12 02:46:45;;;;;;;58.72;17.95;;;;;;;;;;5053015;28;20461;-62
2024/01/12 02:49:10;;;;;;;64.88;19.70;;;;;;;;;;5051155;28;20033;-61
2024/01/12 02:51:35;;;;;;;70.85;20.25;;;;;;;;;;5050977;28;20028;-61
2024/01/12 02:54:01;;;;;;;64.38;18.90;;;;;;;;;;5052355;28;20041;-61
2024/01/12 02:56:27;;;;;;;66.05;20.27;;;;;;;;;;5032739;28;20048;-60
2024/01/12 02:58:52;;;;;;;63.15;19.27;;;;;;;;;;5043382;28;20370;-60
2024/01/12 03:01:19;;;;;;;67.75;18.80;;;;;;;;;;5044811;28;20033;-60
2024/01/12 03:03:44;;;;;;;69.15;19.85;;;;;;;;;;5051262;28;20061;-62
2024/01/12 03:06:09;;;;;;;72.20;19.70;;;;;;;;;;5052021;28;20061;-62
2024/01/12 03:08:35;;;;;;;72.20;19.80;;;;;;;;;;5051867;28;20072;-62
2024/01/12 03:11:00;;;;;;;72.88;19.75;;;;;;;;;;5049791;28;20037;-62
2024/01/12 03:13:26;;;;;;;64.40;19.45;;;;;;;;;;5051155;28;20045;-62
2024/01/12 03:15:51;;;;;;;71.00;19.27;;;;;;;;;;5050964;28;20077;-62
2024/01/12 03:18:16;;;;;;;64.57;19.42;;;;;;;;;;5051053;28;20033;-62
2024/01/12 03:20:42;;;;;;;78.05;20.67;;;;;;;;;;5049704;28;20055;-62
2024/01/12 03:23:07;;;;;;;66.40;19.10;;;;;;;;;;5050599;28;20037;-62
2024/01/12 03:25:33;;;;;;;68.43;19.10;;;;;;;;;;5049983;28;20037;-62
2024/01/12 03:27:59;;;;;;;70.28;20.90;;;;;;;;;;5051707;28;20041;-62
2024/01/12 03:30:24;;;;;;;59.22;19.02;;;;;;;;;;5049279;28;21006;-61
2024/01/12 03:32:50;;;;;;;62.63;19.73;;;;;;;;;;5048958;28;20033;-62
2024/01/12 03:35:15;;;;;;;66.05;19.23;;;;;;;;;;5050747;28;20029;-61
2024/01/12 03:37:40;;;;;;;56.05;18.30;;;;;;;;;;5050161;28;20146;-61
2024/01/12 03:40:06;;;;;;;58.53;18.55;;;;;;;;;;5050778;28;20037;-62
2024/01/12 03:42:32;;;;;;;54.45;18.20;;;;;;;;;;5049250;28;20063;-60
2024/01/12 03:44:57;;;;;;;59.80;19.00;;;;;;;;;;5051390;28;20103;-61
2024/01/12 03:47:23;;;;;;;59.65;18.50;;;;;;;;;;5050212;28;20397;-62
2024/01/12 03:49:48;;;;;;;58.58;18.85;;;;;;;;;;5052412;28;20428;-61
2024/01/12 03:52:13;;;;;;;56.38;18.15;;;;;;;;;;5049183;28;20029;-62
2024/01/12 03:54:39;;;;;;;60.60;18.98;;;;;;;;;;5051643;28;20401;-62
2024/01/12 03:57:04;;;;;;;66.55;20.40;;;;;;;;;;5050295;28;20409;-61
2024/01/12 03:59:29;;;;;;;60.72;18.73;;;;;;;;;;5048469;28;20017;-61
2024/01/12 04:01:55;;;;;;;64.00;19.02;;;;;;;;;;5044425;28;20033;-62
2024/01/12 04:04:20;;;;;;;57.92;18.98;;;;;;;;;;5046316;28;20064;-62
2024/01/12 04:06:46;;;;;;;70.63;20.45;;;;;;;;;;5049349;28;20070;-60
2024/01/12 04:09:12;;;;;;;60.25;19.58;;;;;;;;;;5049339;28;20110;-60
2024/01/12 04:11:38;;;;;;;56.97;17.48;;;;;;;;;;5050362;28;20083;-61
2024/01/12 04:14:04;;;;;;;60.38;19.42;;;;;;;;;;5050568;28;20090;-60
2024/01/12 04:16:29;;;;;;;59.70;19.48;;;;;;;;;;5050533;28;20036;-62
2024/01/12 04:18:55;;;;;;;63.85;20.25;;;;;;;;;;5051040;28;20108;-62
2024/01/12 04:21:20;;;;;;;62.38;19.83;;;;;;;;;;5048821;28;20438;-62
2024/01/12 04:23:46;;;;;;;59.40;18.80;;;;;;;;;;5049704;28;20186;-62
2024/01/12 04:26:11;;;;;;;67.28;20.88;;;;;;;;;;5031909;28;20443;-62
2024/01/12 04:28:37;;;;;;;65.93;19.45;;;;;;;;;;5046207;28;20485;-62
2024/01/12 04:31:03;;;;;;;68.18;20.08;;;;;;;;;;5047202;28;20087;-62
2024/01/12 04:33:33;;;;;;;69.68;19.42;;;;;;;;;;5049458;28;20044;-60
2024/01/12 04:35:59;;;;;;;63.03;19.65;;;;;;;;;;5050592;28;20571;-60
2024/01/12 04:38:25;;;;;;;62.95;18.17;;;;;;;;;;5043787;28;20030;-61
2024/01/12 04:40:51;;;;;;;49.95;17.52;;;;;;;;;;5031377;28;20474;-62
2024/01/12 04:43:17;;;;;;;56.10;18.65;;;;;;;;;;5040667;28;20051;-61
2024/01/12 04:45:43;;;;;;;55.63;18.10;;;;;;;;;;5050674;28;20147;-61
2024/01/12 04:48:08;;;;;;;60.70;20.38;;;;;;;;;;5047985;28;21660;-61
2024/01/12 04:50:34;;;;;;;58.58;18.77;;;;;;;;;;5048415;28;20481;-60
2024/01/12 04:52:59;;;;;;;59.90;20.40;;;;;;;;;;5049851;28;20037;-60
2024/01/12 04:55:25;;;;;;;75.32;26.67;;;;;;;;;;5049570;28;20470;-61
2024/01/12 04:57:50;;;;;;;78.15;27.70;;;;;;;;;;5050931;28;20047;-61
2024/01/12 05:00:16;;;;;;;65.35;19.27;;;;;;;;;;5047130;28;20512;-60
2024/01/12 05:02:42;;;;;;;57.47;18.40;;;;;;;;;;5035706;28;20037;-60
2024/01/12 05:05:08;;;;;;;55.13;18.15;;;;;;;;;;5031514;28;20026;-60
2024/01/12 05:07:34;;;;;;;61.15;20.15;;;;;;;;;;5030561;28;20026;-61
2024/01/12 05:09:59;;;;;;;61.47;18.75;;;;;;;;;;5049446;28;20075;-62
2024/01/12 05:12:25;;;;;;;55.70;18.65;;;;;;;;;;5050614;28;20025;-62
2024/01/12 05:14:50;;;;;;;54.00;18.05;;;;;;;;;;5051449;28;20409;-61
2024/01/12 05:17:16;;;;;;;55.10;16.80;;;;;;;;;;5049467;28;20053;-62
2024/01/12 05:19:41;;;;;;;53.67;17.88;;;;;;;;;;5051380;28;20033;-62
2024/01/12 05:22:07;;;;;;;53.03;16.65;;;;;;;;;;5051201;28;20119;-62
2024/01/12 05:24:33;;;;;;;49.28;16.63;;;;;;;;;;5050087;28;20048;-60
2024/01/12 05:26:59;;;;;;;49.97;17.15;;;;;;;;;;5050054;28;20102;-62
2024/01/12 05:29:24;;;;;;;42.97;16.50;;;;;;;;;;5050508;28;20033;-63
2024/01/12 05:31:49;;;;;;;41.17;14.02;;;;;;;;;;5053176;28;20044;-63
2024/01/12 05:34:15;;;;;;;42.60;14.18;;;;;;;;;;5036506;28;20032;-62
2024/01/12 05:36:40;;;;;;;42.97;15.43;;;;;;;;;;5056073;28;20453;-62
2024/01/12 05:39:06;;;;;;;42.47;14.70;;;;;;;;;;5055191;28;20032;-63
2024/01/12 05:41:32;;;;;;;32.53;11.18;;;;;;;;;;5035885;28;20047;-62
2024/01/12 05:43:57;;;;;;;38.47;13.13;;;;;;;;;;5034930;28;20520;-63
2024/01/12 05:46:22;;;;;;;32.22;11.98;;;;;;;;;;5034297;28;20029;-62
2024/01/12 05:48:48;;;;;;;36.60;12.90;;;;;;;;;;5035169;28;20032;-62
2024/01/12 05:51:14;;;;;;;34.10;11.98;;;;;;;;;;5053805;28;20462;-61
2024/01/12 05:53:40;;;;;;;29.55;10.45;;;;;;;;;;5053123;28;20032;-61
2024/01/12 05:56:06;;;;;;;21.17;7.72;;;;;;;;;;5044628;28;20388;-61
2024/01/12 05:58:31;;;;;;;25.98;8.68;;;;;;;;;;5053171;28;20044;-61
2024/01/12 06:00:57;;;;;;;36.90;11.80;;;;;;;;;;5036046;28;20370;-61
2024/01/12 06:03:22;;;;;;;36.00;12.05;;;;;;;;;;5053297;28;20040;-61
2024/01/12 06:05:50;;;;;;;34.13;11.80;;;;;;;;;;5054424;28;20458;-61
2024/01/12 06:08:16;;;;;;;38.17;13.30;;;;;;;;;;5035807;28;20031;-61
2024/01/12 06:10:42;;;;;;;38.33;12.20;;;;;;;;;;5053229;28;20458;-61
2024/01/12 06:13:07;;;;;;;28.55;10.23;;;;;;;;;;5054183;28;20048;-61
2024/01/12 06:15:33;;;;;;;28.42;10.88;;;;;;;;;;5053373;28;20115;-60
2024/01/12 06:17:59;;;;;;;28.27;10.27;;;;;;;;;;5036073;28;20071;-61
2024/01/12 06:20:25;;;;;;;30.60;10.23;;;;;;;;;;5052816;28;20112;-61
2024/01/12 06:22:50;;;;;;;30.40;9.80;;;;;;;;;;5054026;28;20390;-61
2024/01/12 06:25:16;;;;;;;28.70;10.63;;;;;;;;;;5048966;28;20465;-62
2024/01/12 06:27:41;;;;;;;25.45;10.32;;;;;;;;;;5053345;28;20037;-61
2024/01/12 06:30:08;;;;;;;32.78;11.43;;;;;;;;;;5053560;28;20428;-60
2024/01/12 06:32:33;;;;;;;28.75;10.65;;;;;;;;;;5052973;28;20083;-60
2024/01/12 06:34:59;;;;;;;33.53;12.20;;;;;;;;;;5050427;28;20053;-60
2024/01/12 06:37:24;;;;;;;34.20;12.38;;;;;;;;;;5034812;28;20091;-60
2024/01/12 06:39:50;;;;;;;36.97;11.40;;;;;;;;;;5041902;28;20030;-59
2024/01/12 06:42:15;;;;;;;34.40;11.95;;;;;;;;;;5032853;28;20045;-61
2024/01/12 06:44:41;;;;;;;43.38;14.10;;;;;;;;;;5032596;28;20045;-60
2024/01/12 06:47:07;;;;;;;24.17;8.38;;;;;;;;;;5015594;28;20034;-60
2024/01/12 06:49:33;;;;;;;39.38;13.57;;;;;;;;;;5042977;28;20458;-58
2024/01/12 06:51:59;;;;;;;21.52;8.20;;;;;;;;;;5052676;28;20061;-58
2024/01/12 06:54:24;;;;;;;24.20;7.95;;;;;;;;;;5043685;28;20433;-61
2024/01/12 06:56:52;;;;;;;43.92;14.43;;;;;;;;;;5053130;28;20033;-60
2024/01/12 06:59:18;;;;;;;49.67;15.77;;;;;;;;;;5052080;28;20029;-61
2024/01/12 07:01:43;;;;;;;61.20;20.25;;;;;;;;;;5053026;28;20048;-59
2024/01/12 07:04:09;;;;;;;49.80;17.08;;;;;;;;;;5048588;28;20033;-59
2024/01/12 07:06:34;;;;;;;60.13;18.58;;;;;;;;;;5034945;28;20079;-59
2024/01/12 07:09:00;;;;;;;46.08;15.35;;;;;;;;;;5044261;28;21390;-57
2024/01/12 07:11:25;;;;;;;48.42;14.70;;;;;;;;;;5032823;28;20033;-53
2024/01/12 07:13:51;;;;;;;100.65;39.10;;;;;;;;;;5052694;28;20068;-57
2024/01/12 07:16:16;;;;;;;60.15;19.95;;;;;;;;;;5052116;28;20028;-60
2024/01/12 07:18:42;;;;;;;47.45;15.45;;;;;;;;;;5051234;28;20079;-60
2024/01/12 07:21:08;;;;;;;46.10;14.82;;;;;;;;;;5044566;28;20033;-60
2024/01/12 07:23:33;;;;;;;39.83;14.35;;;;;;;;;;5033151;28;20029;-59
2024/01/12 07:26:00;;;;;;;42.33;14.68;;;;;;;;;;5050306;28;20056;-59
2024/01/12 07:28:26;;;;;;;42.03;14.48;;;;;;;;;;5051292;28;20465;-57
2024/01/12 07:30:54;;;;;;;40.10;13.80;;;;;;;;;;5052174;28;20044;-58
2024/01/12 07:33:21;;;;;;;40.25;13.88;;;;;;;;;;5051565;28;20397;-61
2024/01/12 07:35:46;;;;;;;44.80;14.45;;;;;;;;;;5050649;28;20040;-61
2024/01/12 07:38:12;;;;;;;37.38;13.40;;;;;;;;;;5049231;28;20099;-61
2024/01/12 07:40:37;;;;;;;36.25;13.00;;;;;;;;;;5036884;28;20552;-61
2024/01/12 07:43:03;;;;;;;42.55;12.77;;;;;;;;;;5044825;28;20405;-60
2024/01/12 07:45:29;;;;;;;33.95;10.55;;;;;;;;;;5049012;28;20458;-60
2024/01/12 07:47:54;;;;;;;29.58;10.43;;;;;;;;;;5051459;28;20044;-60
2024/01/12 07:50:19;;;;;;;30.70;11.18;;;;;;;;;;5040634;28;20485;-60
2024/01/12 07:52:45;;;;;;;39.00;12.73;;;;;;;;;;5033725;28;20037;-58
2024/01/12 07:55:11;;;;;;;36.22;11.63;;;;;;;;;;5048572;28;20025;-59
2024/01/12 07:57:36;;;;;;;42.13;12.23;;;;;;;;;;5039005;28;20468;-57
2024/01/12 08:00:03;;;;;;;38.42;12.00;;;;;;;;;;5044195;28;20045;-58
2024/01/12 08:02:28;;;;;;;45.95;17.10;;;;;;;;;;5050741;28;20040;-61
2024/01/12 08:04:53;;;;;;;37.65;12.40;;;;;;;;;;5044502;28;20029;-60
2024/01/12 08:07:19;;;;;;;46.78;13.88;;;;;;;;;;5043101;28;20480;-60
2024/01/12 08:09:44;;;;;;;41.05;14.60;;;;;;;;;;5045127;28;20034;-57
2024/01/12 08:12:10;;;;;;;53.25;15.88;;;;;;;;;;5035689;28;20083;-57
2024/01/12 08:14:35;;;;;;;56.75;15.80;;;;;;;;;;5032993;28;20116;-55
2024/01/12 08:17:02;;;;;;;52.13;16.30;;;;;;;;;;5051201;28;20511;-57
2024/01/12 08:19:27;;;;;;;53.92;16.88;;;;;;;;;;5048049;28;20029;-55
2024/01/12 08:21:53;;;;;;;52.45;15.95;;;;;;;;;;5032089;28;20477;-56
2024/01/12 08:24:18;;;;;;;52.05;15.88;;;;;;;;;;5041397;28;20079;-54
2024/01/12 08:26:47;;;;;;;66.03;17.40;;;;;;;;;;5030844;28;20462;-56
2024/01/12 08:29:12;;;;;;;58.15;17.65;;;;;;;;;;5031703;28;20037;-59
2024/01/12 08:31:38;;;;;;;57.22;16.65;;;;;;;;;;5046150;28;20085;-59
2024/01/12 08:34:03;;;;;;;65.03;17.08;;;;;;;;;;5050860;28;20431;-57
2024/01/12 08:36:28;;;;;;;54.70;16.67;;;;;;;;;;5032518;28;20034;-59
2024/01/12 08:38:54;;;;;;;64.72;18.08;;;;;;;;;;5039592;28;20044;-58
2024/01/12 08:41:19;;;;;;;57.70;17.52;;;;;;;;;;5034433;28;20029;-59
2024/01/12 08:43:45;;;;;;;67.47;17.85;;;;;;;;;;5048870;28;20044;-56
2024/01/12 08:46:10;;;;;;;64.65;18.05;;;;;;;;;;5035943;28;20052;-59
2024/01/12 08:48:35;;;;;;;59.65;17.30;;;;;;;;;;5034879;28;20115;-55
2024/01/12 08:51:01;;;;;;;76.20;22.27;;;;;;;;;;5027481;28;20200;-60
2024/01/12 08:53:27;;;;;;;62.28;16.95;;;;;;;;;;5035507;28;20041;-59
2024/01/12 08:55:53;;;;;;;69.40;18.23;;;;;;;;;;5031052;28;20046;-57
2024/01/12 08:58:19;;;;;;;61.67;17.80;;;;;;;;;;5039756;28;20479;-60
2024/01/12 09:00:44;;;;;;;58.72;17.02;;;;;;;;;;5050155;28;20029;-59
2024/01/12 09:03:09;;;;;;;60.25;18.20;;;;;;;;;;5050649;28;20041;-60
2024/01/12 09:05:35;;;;;;;66.07;17.67;;;;;;;;;;5017886;28;20112;-59
2024/01/12 09:08:01;;;;;;;65.80;16.77;;;;;;;;;;5055018;28;20361;-59
2024/01/12 09:10:27;;;;;;;63.00;16.88;;;;;;;;;;5053833;28;20068;-60
2024/01/12 09:12:53;;;;;;;46.50;15.23;;;;;;;;;;5036390;28;20497;-61
2024/01/12 09:15:18;;;;;;;50.08;16.15;;;;;;;;;;5054811;28;20062;-60
2024/01/12 09:17:44;;;;;;;48.42;15.65;;;;;;;;;;5054090;28;20037;-58
2024/01/12 09:20:10;;;;;;;47.40;14.98;;;;;;;;;;5052756;28;20112;-59
2024/01/12 09:22:35;;;;;;;49.92;14.90;;;;;;;;;;5053638;28;20163;-59
2024/01/12 09:25:00;;;;;;;49.55;15.15;;;;;;;;;;5051385;28;20033;-59
2024/01/12 09:27:26;;;;;;;52.33;14.95;;;;;;;;;;5040335;28;20029;-62
2024/01/12 09:29:52;;;;;;;48.20;15.18;;;;;;;;;;5052785;28;20028;-60
2024/01/12 09:32:17;;;;;;;53.45;15.30;;;;;;;;;;5046865;28;20385;-58
2024/01/12 09:34:43;;;;;;;47.97;15.27;;;;;;;;;;5053399;28;20036;-60
2024/01/12 09:37:08;;;;;;;46.22;15.10;;;;;;;;;;5048352;28;20111;-58
2024/01/12 09:39:34;;;;;;;44.05;14.75;;;;;;;;;;5053717;28;20347;-58
2024/01/12 09:42:02;;;;;;;48.25;15.50;;;;;;;;;;5035231;28;20053;-58
2024/01/12 09:44:28;;;;;;;48.78;14.68;;;;;;;;;;5033568;28;20065;-60
2024/01/12 09:46:58;;;;;;;51.47;14.30;;;;;;;;;;5040410;28;20024;-60
2024/01/12 09:49:28;;;;;;;42.15;14.15;;;;;;;;;;5053713;28;20525;-60
2024/01/12 09:51:54;;;;;;;32.35;12.23;;;;;;;;;;5042912;28;20603;-58
2024/01/12 09:54:19;;;;;;;44.47;12.50;;;;;;;;;;5054406;28;20063;-59
2024/01/12 09:56:46;;;;;;;33.85;12.18;;;;;;;;;;5037223;28;20053;-59
2024/01/12 09:59:11;;;;;;;44.08;12.38;;;;;;;;;;5035973;28;20508;-59
2024/01/12 10:01:40;;;;;;;36.60;12.25;;;;;;;;;;5041221;28;20033;-61
2024/01/12 10:04:06;;;;;;;36.35;12.10;;;;;;;;;;5054451;28;20033;-59
2024/01/12 10:06:32;;;;;;;40.75;13.40;;;;;;;;;;5039185;28;20034;-59
2024/01/12 10:08:58;;;;;;;41.72;12.07;;;;;;;;;;5015990;28;20036;-59
2024/01/12 10:11:24;;;;;;;38.15;13.38;;;;;;;;;;5046084;28;20039;-59
2024/01/12 10:13:49;;;;;;;41.70;13.20;;;;;;;;;;5053365;28;20029;-57
2024/01/12 10:16:20;;;;;;;36.90;13.13;;;;;;;;;;5041409;28;20037;-60
2024/01/12 10:18:46;;;;;;;40.78;12.70;;;;;;;;;;5034825;28;20643;-60
2024/01/12 10:21:13;;;;;;;44.97;12.68;;;;;;;;;;5051103;28;20075;-59
2024/01/12 10:23:40;;;;;;;33.95;12.85;;;;;;;;;;5052514;28;20036;-58
2024/01/12 10:26:06;;;;;;;36.60;12.45;;;;;;;;;;5044483;28;20045;-60
2024/01/12 10:28:31;;;;;;;38.22;12.60;;;;;;;;;;5051728;28;20029;-60
2024/01/12 10:30:57;;;;;;;38.75;12.93;;;;;;;;;;5052623;28;20086;-59
2024/01/12 10:33:23;;;;;;;36.83;11.85;;;;;;;;;;5045402;28;20065;-61
2024/01/12 10:35:59;;;;;;;37.83;13.63;;;;;;;;;;5021475;28;20528;-59
2024/01/12 10:38:26;;;;;;;37.78;12.40;;;;;;;;;;5035891;28;20033;-60
2024/01/12 10:40:54;;;;;;;33.55;12.23;;;;;;;;;;5051719;28;20111;-59
2024/01/12 10:43:22;;;;;;;38.88;13.00;;;;;;;;;;5053055;28;20094;-58
2024/01/12 10:45:54;;;;;;;34.47;13.18;;;;;;;;;;5052288;28;20020;-60
2024/01/12 10:48:21;;;;;;;33.70;11.77;;;;;;;;;;5052303;28;20110;-58
2024/01/12 10:50:52;;;;;;;43.13;12.60;;;;;;;;;;5052150;28;20037;-58
2024/01/12 10:53:37;;;;;;;34.55;12.73;;;;;;;;;;5053422;28;20037;-59
2024/01/12 10:56:03;;;;;;;36.97;12.20;;;;;;;;;;5047342;28;20112;-60
2024/01/12 10:58:29;;;;;;;36.92;11.43;;;;;;;;;;5052419;28;20038;-61
2024/01/12 11:00:55;;;;;;;27.98;11.55;;;;;;;;;;5046919;28;20513;-60
2024/01/12 11:03:20;;;;;;;39.25;12.63;;;;;;;;;;5052649;28;20432;-59
2024/01/12 11:05:48;;;;;;;48.13;16.48;;;;;;;;;;5047767;28;20029;-59
2024/01/12 11:08:14;;;;;;;43.88;14.73;;;;;;;;;;5032816;28;20087;-61
2024/01/12 11:10:47;;;;;;;46.53;16.52;;;;;;;;;;5047501;28;20530;-61
2024/01/12 11:13:16;;;;;;;49.83;16.50;;;;;;;;;;5015129;28;20541;-60
2024/01/12 11:15:42;;;;;;;45.45;16.30;;;;;;;;;;5037647;28;20025;-61
2024/01/12 11:18:07;;;;;;;47.22;16.08;;;;;;;;;;5051535;28;20039;-60
2024/01/12 11:20:33;;;;;;;39.20;14.52;;;;;;;;;;5050293;28;20029;-61
2024/01/12 11:22:59;;;;;;;37.88;13.85;;;;;;;;;;5034729;28;20040;-60
2024/01/12 11:25:24;;;;;;;37.67;14.93;;;;;;;;;;5052267;28;20037;-58
2024/01/12 11:27:51;;;;;;;52.35;16.33;;;;;;;;;;5039828;28;20192;-58
2024/01/12 11:30:21;;;;;;;51.20;15.27;;;;;;;;;;5051859;28;20082;-59
2024/01/12 11:32:47;;;;;;;45.67;15.70;;;;;;;;;;5051482;28;20029;-57
2024/01/12 11:35:17;;;;;;;59.42;17.17;;;;;;;;;;5052228;28;20289;-61
2024/01/12 11:37:58;;;;;;;53.63;16.52;;;;;;;;;;5033571;28;20059;-61
2024/01/12 11:40:24;;;;;;;63.58;19.42;;;;;;;;;;5016397;28;20112;-59
2024/01/12 11:42:51;;;;;;;61.33;20.65;;;;;;;;;;5031355;28;20620;-60
2024/01/12 11:45:18;;;;;;;61.42;19.33;;;;;;;;;;5033129;28;20033;-61
2024/01/12 11:47:44;;;;;;;61.33;21.27;;;;;;;;;;5035037;28;20063;-61
2024/01/12 11:50:15;;;;;;;62.90;19.75;;;;;;;;;;5051752;28;20029;-60
2024/01/12 11:52:41;;;;;;;80.18;25.00;;;;;;;;;;5045304;28;20031;-61
2024/01/12 11:55:08;;;;;;;61.70;20.60;;;;;;;;;;5052169;28;20024;-60
2024/01/12 11:57:35;;;;;;;74.40;23.75;;;;;;;;;;5034468;28;20030;-60
2024/01/12 12:00:01;;;;;;;74.20;24.02;;;;;;;;;;5036201;28;20036;-60
2024/01/12 12:02:26;;;;;;;64.32;21.58;;;;;;;;;;5036598;28;20123;-59
2024/01/12 12:04:53;;;;;;;72.40;23.27;;;;;;;;;;5040063;28;20914;-59
2024/01/12 12:07:22;;;;;;;75.68;22.67;;;;;;;;;;5042061;28;20056;-61
2024/01/12 12:09:48;;;;;;;63.63;22.98;;;;;;;;;;5043960;28;20428;-60
2024/01/12 12:12:13;;;;;;;74.95;22.95;;;;;;;;;;5051448;28;20469;-59
2024/01/12 12:14:57;;;;;;;64.70;21.48;;;;;;;;;;5042770;28;20037;-60
2024/01/12 12:17:27;;;;;;;69.82;22.52;;;;;;;;;;5051462;28;20037;-61
2024/01/12 12:19:53;;;;;;;63.47;21.17;;;;;;;;;;5050578;28;20515;-60
2024/01/12 12:22:19;;;;;;;84.30;24.35;;;;;;;;;;5040134;28;20079;-61
2024/01/12 12:24:45;;;;;;;74.07;23.80;;;;;;;;;;5050017;28;20037;-61
2024/01/12 12:27:10;;;;;;;74.95;23.15;;;;;;;;;;5035984;28;20117;-60
2024/01/12 12:29:36;;;;;;;66.10;20.40;;;;;;;;;;5031016;28;20029;-61
2024/01/12 12:32:02;;;;;;;83.28;24.20;;;;;;;;;;5031459;28;20033;-61
2024/01/12 12:34:33;;;;;;;76.38;22.58;;;;;;;;;;5031635;28;20117;-60
2024/01/12 12:36:59;;;;;;;65.43;21.98;;;;;;;;;;5031069;28;20167;-60
2024/01/12 12:39:25;;;;;;;68.15;22.63;;;;;;;;;;5046890;28;20037;-61
2024/01/12 12:41:51;;;;;;;80.97;26.25;;;;;;;;;;5052895;28;20114;-59
2024/01/12 12:44:18;;;;;;;76.15;23.20;;;;;;;;;;5054996;28;20082;-59
2024/01/12 12:46:46;;;;;;;72.80;23.70;;;;;;;;;;5052787;28;20028;-60
2024/01/12 12:49:13;;;;;;;78.38;23.25;;;;;;;;;;5055316;28;20061;-59
2024/01/12 12:51:38;;;;;;;72.80;22.58;;;;;;;;;;5048971;28;20057;-60
2024/01/12 12:54:03;;;;;;;75.20;23.13;;;;;;;;;;5035209;28;20080;-60
2024/01/12 12:56:29;;;;;;;61.45;21.08;;;;;;;;;;5044056;28;20056;-59
2024/01/12 12:58:54;;;;;;;61.00;21.63;;;;;;;;;;5034355;28;20326;-59
2024/01/12 13:01:20;;;;;;;66.45;22.70;;;;;;;;;;5050515;28;20036;-60
2024/01/12 13:03:46;;;;;;;62.33;20.75;;;;;;;;;;5050872;28;20377;-60
2024/01/12 13:06:12;;;;;;;62.60;20.90;;;;;;;;;;5053485;28;20723;-59
2024/01/12 13:08:38;;;;;;;61.33;20.90;;;;;;;;;;5034310;28;20029;-60
2024/01/12 13:11:03;;;;;;;76.95;22.50;;;;;;;;;;5053217;28;20214;-60
2024/01/12 13:13:29;;;;;;;70.20;23.25;;;;;;;;;;5035848;28;20045;-60
2024/01/12 13:15:54;;;;;;;74.32;23.17;;;;;;;;;;5033987;28;20108;-60
2024/01/12 13:18:19;;;;;;;73.00;23.27;;;;;;;;;;5026686;28;20033;-60
2024/01/12 13:20:48;;;;;;;70.60;24.00;;;;;;;;;;5053650;28;20035;-60
2024/01/12 13:23:13;;;;;;;68.25;22.90;;;;;;;;;;5037825;28;20542;-60
2024/01/12 13:25:39;;;;;;;72.97;24.45;;;;;;;;;;5034130;28;20116;-61
2024/01/12 13:28:04;;;;;;;74.88;22.17;;;;;;;;;;5043407;28;20485;-61
2024/01/12 13:30:30;;;;;;;71.78;23.20;;;;;;;;;;5054974;28;20033;-60
2024/01/12 13:32:55;;;;;;;80.97;23.23;;;;;;;;;;5049491;28;20213;-60
2024/01/12 13:35:21;;;;;;;79.78;23.98;;;;;;;;;;5054235;28;20037;-60
2024/01/12 13:37:46;;;;;;;80.72;25.75;;;;;;;;;;5053560;28;20094;-59
2024/01/12 13:40:12;;;;;;;91.38;25.27;;;;;;;;;;5049430;28;20464;-61
2024/01/12 13:42:38;;;;;;;89.80;25.92;;;;;;;;;;5052291;28;20099;-60
2024/01/12 13:45:04;;;;;;;80.07;24.73;;;;;;;;;;5052918;28;20105;-60
2024/01/12 13:47:29;;;;;;;80.40;25.25;;;;;;;;;;5053856;28;20056;-61
2024/01/12 13:49:55;;;;;;;85.82;25.13;;;;;;;;;;5052956;28;20119;-60
2024/01/12 13:52:20;;;;;;;77.97;25.48;;;;;;;;;;5034919;28;20036;-60
2024/01/12 13:54:46;;;;;;;81.15;25.00;;;;;;;;;;5053148;28;20445;-61
2024/01/12 13:57:11;;;;;;;84.47;24.80;;;;;;;;;;5052784;28;20040;-60
2024/01/12 13:59:37;;;;;;;72.97;22.05;;;;;;;;;;5053916;28;20075;-61
2024/01/12 14:02:04;;;;;;;74.50;23.73;;;;;;;;;;5048973;28;20461;-60
2024/01/12 14:04:30;;;;;;;65.03;21.38;;;;;;;;;;5033795;28;20421;-59
2024/01/12 14:06:56;;;;;;;84.75;25.08;;;;;;;;;;5015532;28;20630;-59
2024/01/12 14:09:21;;;;;;;70.80;23.48;;;;;;;;;;5034262;28;20037;-59